Time;durP1;ratioP1;P1;durP2;ratioP2;P2;SDS_P1;SDS_P2;PMS_P1;PMS_P2;Temp;Humidity;BMP_temperature;BMP_pressure;BME280_temperature;BME280_humidity;BME280_pressure;Samples;Min_cycle;Max_cycle;Signal;HPM_P1;HPM_P2
2022/12/04 00:01:09;;;;;;;52.57;27.90;;;6.80;48.40;;;;;;5013026;28;20213;-51
2022/12/04 00:03:35;;;;;;;45.42;24.25;;;6.80;48.40;;;;;;5012347;28;20480;-51
2022/12/04 00:06:10;;;;;;;47.65;25.67;;;6.80;48.20;;;;;;5012615;28;20636;-51
2022/12/04 00:08:36;;;;;;;55.88;24.67;;;6.90;48.30;;;;;;5012665;28;20277;-51
2022/12/04 00:11:07;;;;;;;40.25;23.98;;;6.90;48.20;;;;;;5012557;28;20171;-52
2022/12/04 00:13:33;;;;;;;44.47;24.40;;;6.90;48.20;;;;;;5012189;28;20178;-52
2022/12/04 00:15:59;;;;;;;46.60;24.80;;;6.90;48.20;;;;;;5012869;28;20636;-51
2022/12/04 00:18:26;;;;;;;47.05;24.25;;;6.90;48.20;;;;;;5012540;28;20640;-51
2022/12/04 00:20:52;;;;;;;53.80;25.92;;;6.90;48.20;;;;;;5012430;28;20178;-52
2022/12/04 00:23:18;;;;;;;45.90;27.38;;;6.90;48.20;;;;;;5012301;28;20269;-52
2022/12/04 00:25:47;;;;;;;41.80;22.37;;;6.90;48.10;;;;;;5012291;28;20222;-51
2022/12/04 00:28:17;;;;;;;44.35;24.23;;;7.00;48.20;;;;;;5012398;28;20696;-50
2022/12/04 00:30:44;;;;;;;50.70;22.67;;;7.00;48.10;;;;;;5012371;28;20206;-51
2022/12/04 00:33:11;;;;;;;46.88;23.80;;;7.00;48.20;;;;;;5012298;28;20178;-51
2022/12/04 00:35:38;;;;;;;43.72;26.88;;;7.00;48.10;;;;;;5012072;28;20604;-51
2022/12/04 00:38:03;;;;;;;45.78;23.45;;;7.00;48.10;;;;;;5012174;28;20253;-51
2022/12/04 00:40:29;;;;;;;48.30;26.00;;;7.00;48.10;;;;;;5012403;28;20261;-51
2022/12/04 00:42:55;;;;;;;51.40;24.13;;;7.00;48.00;;;;;;5011952;28;20671;-51
2022/12/04 00:45:20;;;;;;;44.90;23.30;;;7.10;48.10;;;;;;5012090;28;20210;-51
2022/12/04 00:47:46;;;;;;;51.13;25.57;;;7.10;48.10;;;;;;5012192;28;20678;-51
2022/12/04 00:50:12;;;;;;;53.30;27.10;;;7.10;48.00;;;;;;5012126;28;20189;-51
2022/12/04 00:52:38;;;;;;;47.77;25.23;;;7.10;48.00;;;;;;5011915;28;20178;-51
2022/12/04 00:55:04;;;;;;;47.10;23.37;;;7.10;47.90;;;;;;5012024;28;20210;-51
2022/12/04 00:57:30;;;;;;;39.35;24.23;;;7.00;47.70;;;;;;5015944;28;20786;-51
2022/12/04 00:59:55;;;;;;;48.00;25.83;;;7.00;47.90;;;;;;5016034;28;20174;-51
2022/12/04 01:02:21;;;;;;;55.20;25.03;;;7.00;48.10;;;;;;5015703;28;20429;-51
2022/12/04 01:04:47;;;;;;;52.27;30.57;;;7.10;48.10;;;;;;5016083;28;20245;-51
2022/12/04 01:07:13;;;;;;;48.00;29.23;;;7.00;48.10;;;;;;5016166;28;20637;-51
2022/12/04 01:09:38;;;;;;;42.80;25.53;;;7.00;47.90;;;;;;5015897;28;20656;-51
2022/12/04 01:12:04;;;;;;;48.73;26.20;;;7.10;48.00;;;;;;5015516;28;20167;-51
2022/12/04 01:14:30;;;;;;;46.80;24.50;;;7.00;47.80;;;;;;5015729;28;20194;-51
2022/12/04 01:16:55;;;;;;;42.30;25.50;;;7.00;48.00;;;;;;5015714;28;20410;-51
2022/12/04 01:19:21;;;;;;;46.10;25.30;;;7.10;48.10;;;;;;5015677;28;20171;-52
2022/12/04 01:21:47;;;;;;;47.63;23.93;;;7.10;48.00;;;;;;5015336;28;20217;-51
2022/12/04 01:24:13;;;;;;;44.83;25.10;;;7.10;48.00;;;;;;5015322;28;20456;-51
2022/12/04 01:26:38;;;;;;;50.40;25.87;;;7.10;47.90;;;;;;5015527;28;20652;-51
2022/12/04 01:29:04;;;;;;;46.50;24.80;;;7.10;47.80;;;;;;5015515;28;20198;-51
2022/12/04 01:31:30;;;;;;;58.97;28.40;;;7.10;47.80;;;;;;5015431;28;20175;-51
2022/12/04 01:33:56;;;;;;;39.90;25.20;;;7.00;47.80;;;;;;5015171;28;20195;-51
2022/12/04 01:36:25;;;;;;;55.50;31.17;;;7.00;47.80;;;;;;5015323;28;20408;-51
2022/12/04 01:38:51;;;;;;;47.20;24.27;;;7.10;48.10;;;;;;5015296;28;20401;-51
2022/12/04 01:41:21;;;;;;;48.67;25.00;;;7.10;48.20;;;;;;5015340;28;20179;-51
2022/12/04 01:44:13;;;;;;;59.35;29.98;;;7.10;48.10;;;;;;5014827;28;20194;-51
2022/12/04 01:46:41;;;;;;;49.75;26.02;;;7.10;48.00;;;;;;5015208;28;20175;-51
2022/12/04 01:49:14;;;;;;;50.72;29.70;;;7.10;48.00;;;;;;5015142;28;20247;-51
2022/12/04 01:51:47;;;;;;;50.45;26.23;;;7.10;48.10;;;;;;5028082;23;20235;-50
2022/12/04 01:54:28;;;;;;;49.05;28.58;;;7.10;48.20;;;;;;5014628;28;20712;-50
2022/12/04 01:57:00;;;;;;;49.80;28.85;;;7.10;48.10;;;;;;5015306;28;20532;-49
2022/12/04 01:59:32;;;;;;;60.08;29.20;;;7.10;48.00;;;;;;5015209;28;20572;-49
2022/12/04 02:02:10;;;;;;;57.95;28.55;;;7.00;48.00;;;;;;5007193;28;20628;-50
2022/12/04 02:04:37;;;;;;;54.92;27.38;;;7.00;48.00;;;;;;4995464;28;20249;-50
2022/12/04 02:07:03;;;;;;;49.85;26.45;;;7.00;48.00;;;;;;4994420;28;20187;-50
2022/12/04 02:09:30;;;;;;;60.45;29.63;;;7.00;48.10;;;;;;4995201;28;20171;-50
2022/12/04 02:12:12;;;;;;;66.18;30.95;;;7.00;48.10;;;;;;4994938;28;20191;-50
2022/12/04 02:14:49;;;;;;;66.25;31.33;;;7.00;48.20;;;;;;4995128;28;20181;-50
2022/12/04 02:17:27;;;;;;;61.88;30.20;;;7.00;48.10;;;;;;4995030;28;20171;-50
2022/12/04 02:20:18;;;;;;;58.42;29.70;;;7.00;48.10;;;;;;4994994;28;20701;-50
2022/12/04 02:23:13;;;;;;;66.65;30.48;;;7.00;48.10;;;;;;4994552;28;20207;-50
2022/12/04 02:25:44;;;;;;;57.97;28.40;;;7.00;48.10;;;;;;4994859;28;20234;-49
2022/12/04 02:28:24;;;;;;;54.65;28.17;;;7.00;48.10;;;;;;4995073;28;20653;-49
2022/12/04 02:30:54;;;;;;;50.60;29.05;;;6.90;48.20;;;;;;4994736;28;20163;-50
2022/12/04 02:33:33;;;;;;;50.83;29.50;;;6.90;48.40;;;;;;4994540;28;20206;-50
2022/12/04 02:36:15;;;;;;;58.20;30.05;;;6.90;48.50;;;;;;4994741;28;20653;-50
2022/12/04 02:39:03;;;;;;;64.22;30.05;;;6.90;48.40;;;;;;4994678;28;20225;-50
2022/12/04 02:41:44;;;;;;;54.92;28.83;;;6.90;49.10;;;;;;4994264;28;20616;-50
2022/12/04 02:44:18;;;;;;;55.63;29.38;;;7.00;48.50;;;;;;4994271;28;20207;-50
2022/12/04 02:46:48;;;;;;;51.33;28.17;;;7.00;48.50;;;;;;4994782;28;20159;-49
2022/12/04 02:49:25;;;;;;;54.55;28.80;;;7.00;48.40;;;;;;4994398;28;20167;-50
2022/12/04 02:51:54;;;;;;;62.72;29.75;;;7.00;48.30;;;;;;4994114;28;20207;-50
2022/12/04 02:54:26;;;;;;;61.67;28.52;;;7.00;48.30;;;;;;4994201;28;20179;-50
2022/12/04 02:56:53;;;;;;;51.08;28.60;;;7.10;48.40;;;;;;4994342;28;20167;-50
2022/12/04 02:59:28;;;;;;;58.55;27.73;;;7.10;48.30;;;;;;4994213;28;20201;-50
2022/12/04 03:01:58;;;;;;;51.85;27.40;;;7.10;48.30;;;;;;4994244;28;20203;-49
2022/12/04 03:04:29;;;;;;;69.07;32.22;;;7.10;48.20;;;;;;4994212;28;20215;-50
2022/12/04 03:07:05;;;;;;;58.15;28.05;;;7.20;48.20;;;;;;4994157;28;20553;-50
2022/12/04 03:10:00;;;;;;;55.53;29.88;;;7.20;48.20;;;;;;4994024;28;20168;-50
2022/12/04 03:12:35;;;;;;;51.65;26.83;;;7.20;48.20;;;;;;4993192;28;20208;-49
2022/12/04 03:15:07;;;;;;;52.28;25.27;;;7.20;48.20;;;;;;4993977;28;20179;-50
2022/12/04 03:17:46;;;;;;;52.58;28.48;;;7.20;48.20;;;;;;4993920;28;20172;-49
2022/12/04 03:20:14;;;;;;;55.10;27.88;;;7.20;48.20;;;;;;4993848;28;20179;-49
2022/12/04 03:22:43;;;;;;;51.92;30.13;;;7.20;48.20;;;;;;4993516;28;20212;-49
2022/12/04 03:25:10;;;;;;;53.85;29.38;;;7.20;48.10;;;;;;4993800;28;20215;-50
2022/12/04 03:27:41;;;;;;;61.03;31.27;;;7.20;48.20;;;;;;4993707;28;20175;-50
2022/12/04 03:30:10;;;;;;;57.42;28.30;;;7.20;48.10;;;;;;4993652;28;20171;-50
2022/12/04 03:32:49;;;;;;;59.35;26.10;;;7.20;48.20;;;;;;4993330;28;20199;-50
2022/12/04 03:35:48;;;;;;;60.85;29.88;;;7.20;48.10;;;;;;4993560;28;20168;-50
2022/12/04 03:38:36;;;;;;;63.13;32.75;;;7.20;48.10;;;;;;4993444;28;20171;-50
2022/12/04 03:41:22;;;;;;;55.47;30.08;;;7.20;48.20;;;;;;4993499;28;20506;-50
2022/12/04 03:43:54;;;;;;;58.05;29.90;;;7.20;48.30;;;;;;4993035;28;20282;-50
2022/12/04 03:46:44;;;;;;;58.22;28.02;;;7.10;48.20;;;;;;4993451;28;20168;-50
2022/12/04 03:49:25;;;;;;;64.55;30.30;;;7.20;48.20;;;;;;4993367;28;20167;-49
2022/12/04 03:52:03;;;;;;;63.20;32.88;;;7.10;48.30;;;;;;4993021;28;20583;-49
2022/12/04 03:54:43;;;;;;;59.78;31.65;;;7.10;48.40;;;;;;4993261;28;20225;-50
2022/12/04 03:57:31;;;;;;;60.38;30.30;;;7.10;48.40;;;;;;4993363;28;20556;-50
2022/12/04 04:00:12;;;;;;;51.50;28.27;;;7.10;48.40;;;;;;4993173;28;20166;-50
2022/12/04 04:02:47;;;;;;;56.03;29.75;;;7.10;48.50;;;;;;4992739;28;20218;-50
2022/12/04 04:05:14;;;;;;;64.20;30.92;;;7.10;48.50;;;;;;4993089;28;20799;-50
2022/12/04 04:07:52;;;;;;;57.42;32.97;;;7.10;48.50;;;;;;4993274;28;20225;-50
2022/12/04 04:10:25;;;;;;;53.20;29.13;;;7.20;48.50;;;;;;4993009;28;20166;-50
2022/12/04 04:24:15;;;;;;;64.70;31.98;;;7.20;48.30;;;;;;4992676;28;20213;-50
2022/12/04 04:26:46;;;;;;;49.60;29.85;;;7.20;48.40;;;;;;4992852;28;20717;-50
2022/12/04 04:29:12;;;;;;;49.00;29.50;;;7.20;48.40;;;;;;4992789;28;20715;-50
2022/12/04 04:31:38;;;;;;;61.35;33.88;;;7.30;48.50;;;;;;4992179;28;20234;-50
2022/12/04 04:34:42;;;;;;;60.63;31.80;;;7.30;48.40;;;;;;4992503;28;20175;-50
2022/12/04 04:37:31;;;;;;;74.00;37.17;;;7.30;48.20;;;;;;4992611;28;20159;-50
2022/12/04 04:40:20;;;;;;;63.97;31.27;;;7.30;48.20;;;;;;4992551;28;20156;-51
2022/12/04 04:43:09;;;;;;;53.38;29.35;;;7.30;48.30;;;;;;4992379;28;20703;-50
2022/12/04 04:45:52;;;;;;;61.88;29.10;;;7.30;48.30;;;;;;4992619;28;20184;-50
2022/12/04 04:48:28;;;;;;;56.22;28.70;;;7.30;48.40;;;;;;4992536;28;20540;-49
2022/12/04 04:50:54;;;;;;;59.13;31.85;;;7.20;48.40;;;;;;4992588;28;20171;-50
2022/12/04 04:53:28;;;;;;;68.18;32.70;;;7.20;48.50;;;;;;4992049;28;20209;-49
2022/12/04 04:55:54;;;;;;;58.25;30.00;;;7.20;48.50;;;;;;4992530;28;20179;-49
2022/12/04 04:58:20;;;;;;;58.58;32.72;;;7.20;48.50;;;;;;4992511;28;20182;-49
2022/12/04 05:01:11;;;;;;;53.90;28.42;;;7.20;48.50;;;;;;4992381;28;20175;-49
2022/12/04 05:03:38;;;;;;;58.88;31.65;;;7.30;48.60;;;;;;4992153;28;20195;-49
2022/12/04 05:06:03;;;;;;;55.60;31.08;;;7.30;48.60;;;;;;4992340;28;20649;-49
2022/12/04 05:08:29;;;;;;;61.07;30.93;;;7.30;48.50;;;;;;4992620;28;20195;-50
2022/12/04 05:10:55;;;;;;;59.37;31.77;;;7.30;48.40;;;;;;4992308;28;20250;-50
2022/12/04 05:13:21;;;;;;;51.77;28.70;;;7.30;48.60;;;;;;4991965;28;20430;-49
2022/12/04 05:16:01;;;;;;;51.88;29.25;;;7.30;48.50;;;;;;4992553;28;20179;-49
2022/12/04 05:18:27;;;;;;;58.42;29.63;;;7.40;48.50;;;;;;4992272;28;20656;-50
2022/12/04 05:20:53;;;;;;;51.47;31.30;;;7.40;48.60;;;;;;4992534;28;20259;-50
2022/12/04 05:23:19;;;;;;;53.30;31.67;;;7.40;48.50;;;;;;4991877;28;20604;-50
2022/12/04 05:25:45;;;;;;;55.27;29.97;;;7.40;48.50;;;;;;4992192;28;20202;-50
2022/12/04 05:28:11;;;;;;;60.75;30.67;;;7.40;48.50;;;;;;4992251;28;20622;-49
2022/12/04 05:30:37;;;;;;;55.50;31.40;;;7.50;48.50;;;;;;4992185;28;20183;-49
2022/12/04 05:33:03;;;;;;;59.10;31.30;;;7.50;48.50;;;;;;4991911;28;20971;-50
2022/12/04 05:35:28;;;;;;;56.03;29.70;;;7.50;48.50;;;;;;4992121;28;20477;-50
2022/12/04 05:37:54;;;;;;;52.90;30.27;;;7.50;48.50;;;;;;4992217;28;20206;-50
2022/12/04 05:40:20;;;;;;;52.00;28.97;;;7.50;48.50;;;;;;4992303;28;20687;-49
2022/12/04 05:42:45;;;;;;;48.43;29.20;;;7.50;48.40;;;;;;4992828;28;20215;-49
2022/12/04 05:45:11;;;;;;;63.00;29.93;;;7.50;48.40;;;;;;4995838;28;20504;-49
2022/12/04 05:47:39;;;;;;;64.17;33.37;;;7.50;48.40;;;;;;4995803;28;20549;-49
2022/12/04 05:50:06;;;;;;;55.53;29.30;;;7.50;48.50;;;;;;4995492;28;20637;-49
2022/12/04 05:52:32;;;;;;;57.17;29.05;;;7.50;48.50;;;;;;4995060;28;20584;-49
2022/12/04 05:54:58;;;;;;;50.60;30.83;;;7.50;48.50;;;;;;4994135;28;20171;-50
2022/12/04 05:57:23;;;;;;;50.73;30.10;;;7.50;48.60;;;;;;4995501;28;20520;-50
2022/12/04 05:59:50;;;;;;;54.63;29.80;;;7.50;48.60;;;;;;4995352;28;20171;-49
2022/12/04 06:02:16;;;;;;;55.22;30.15;;;7.60;48.50;;;;;;4994947;28;20213;-50
2022/12/04 06:04:43;;;;;;;58.67;32.03;;;7.60;48.50;;;;;;4995140;28;20688;-50
2022/12/04 06:07:09;;;;;;;55.97;30.73;;;7.60;48.70;;;;;;4995318;28;20179;-49
2022/12/04 06:09:35;;;;;;;58.00;29.55;;;7.50;48.50;;;;;;4995093;28;20167;-50
2022/12/04 06:12:01;;;;;;;62.20;30.20;;;7.60;48.50;;;;;;4994805;28;20338;-50
2022/12/04 06:14:26;;;;;;;64.00;32.43;;;7.60;48.60;;;;;;4995275;28;20411;-50
2022/12/04 06:16:53;;;;;;;59.47;33.27;;;7.50;48.60;;;;;;4995131;28;20717;-50
2022/12/04 06:19:20;;;;;;;57.25;30.85;;;7.60;48.60;;;;;;4995032;28;20179;-50
2022/12/04 06:21:48;;;;;;;51.97;31.38;;;7.60;48.70;;;;;;4994875;28;20199;-51
2022/12/04 06:24:24;;;;;;;56.85;31.75;;;7.60;48.70;;;;;;4994646;28;20210;-50
2022/12/04 06:26:56;;;;;;;71.93;31.17;;;7.60;48.60;;;;;;4995203;28;20182;-50
2022/12/04 06:29:21;;;;;;;56.10;32.58;;;7.60;48.60;;;;;;4994841;28;20156;-50
2022/12/04 06:31:47;;;;;;;58.43;33.90;;;7.60;48.70;;;;;;4994675;28;20246;-50
2022/12/04 06:34:13;;;;;;;54.67;31.67;;;7.60;48.60;;;;;;4994561;28;20176;-49
2022/12/04 06:36:39;;;;;;;59.17;32.40;;;7.60;48.60;;;;;;4994700;28;20266;-50
2022/12/04 06:39:05;;;;;;;49.43;30.50;;;7.60;48.80;;;;;;4994700;28;20258;-50
2022/12/04 06:41:31;;;;;;;66.63;33.30;;;7.60;49.50;;;;;;4994778;28;20194;-50
2022/12/04 06:43:57;;;;;;;47.40;29.60;;;7.60;48.80;;;;;;4994439;28;20684;-49
2022/12/04 06:46:25;;;;;;;51.00;29.55;;;7.60;48.70;;;;;;4994618;28;20510;-50
2022/12/04 06:48:52;;;;;;;61.05;33.55;;;7.60;48.80;;;;;;4994449;28;20190;-50
2022/12/04 06:51:21;;;;;;;55.03;32.38;;;7.60;48.80;;;;;;4994120;28;20669;-49
2022/12/04 06:53:47;;;;;;;48.20;28.17;;;7.60;48.80;;;;;;4993964;28;20315;-50
2022/12/04 06:56:16;;;;;;;53.58;28.70;;;7.70;48.90;;;;;;4994447;28;20176;-50
2022/12/04 06:58:44;;;;;;;54.45;30.92;;;7.70;48.90;;;;;;4994376;28;20183;-49
2022/12/04 07:01:21;;;;;;;60.03;30.48;;;7.70;48.90;;;;;;4994166;28;20233;-50
2022/12/04 07:03:47;;;;;;;51.45;30.15;;;7.70;48.90;;;;;;4993797;28;20210;-50
2022/12/04 07:06:38;;;;;;;56.42;31.30;;;7.70;48.90;;;;;;4994118;28;20167;-50
2022/12/04 07:09:15;;;;;;;53.90;32.83;;;7.70;49.50;;;;;;4991404;28;20665;-50
2022/12/04 07:11:42;;;;;;;57.08;32.78;;;7.70;49.00;;;;;;4993966;28;20206;-49
2022/12/04 07:14:08;;;;;;;61.70;34.30;;;7.70;48.90;;;;;;4993691;28;20172;-50
2022/12/04 07:16:35;;;;;;;60.40;33.33;;;7.60;48.90;;;;;;4993923;28;20714;-50
2022/12/04 07:19:00;;;;;;;58.22;31.92;;;7.70;49.00;;;;;;4993820;28;20184;-50
2022/12/04 07:21:29;;;;;;;63.53;34.80;;;7.70;49.00;;;;;;4993789;28;20593;-50
2022/12/04 07:23:57;;;;;;;56.13;32.97;;;7.70;49.00;;;;;;4993506;28;20848;-50
2022/12/04 07:26:24;;;;;;;53.88;33.03;;;7.80;49.00;;;;;;4993961;28;20592;-49
2022/12/04 07:28:50;;;;;;;53.13;32.33;;;7.80;48.90;;;;;;4993675;28;20172;-50
2022/12/04 07:31:18;;;;;;;61.03;32.70;;;7.80;48.90;;;;;;4993588;28;20649;-50
2022/12/04 07:33:46;;;;;;;55.97;32.70;;;7.80;48.90;;;;;;4993515;28;20767;-49
2022/12/04 07:36:16;;;;;;;59.78;32.78;;;7.80;48.90;;;;;;4993557;28;20176;-49
2022/12/04 07:38:42;;;;;;;55.72;31.27;;;7.80;48.90;;;;;;4993759;28;20237;-50
2022/12/04 07:41:10;;;;;;;61.17;32.55;;;7.90;49.00;;;;;;4993321;28;20175;-49
2022/12/04 07:43:36;;;;;;;58.83;33.13;;;7.80;48.80;;;;;;4993345;28;20209;-50
2022/12/04 07:46:07;;;;;;;60.90;32.33;;;7.90;48.90;;;;;;4993454;28;20584;-49
2022/12/04 07:48:32;;;;;;;56.33;31.70;;;7.90;49.00;;;;;;4993281;28;20163;-50
2022/12/04 07:51:04;;;;;;;50.90;29.50;;;7.90;49.00;;;;;;4993253;28;20240;-49
2022/12/04 07:53:29;;;;;;;65.65;32.65;;;7.90;49.10;;;;;;4992895;28;20435;-50
2022/12/04 07:55:55;;;;;;;58.10;32.93;;;7.90;49.10;;;;;;4993423;28;20179;-49
2022/12/04 07:58:21;;;;;;;54.90;29.90;;;8.00;49.00;;;;;;4993378;28;20195;-50
2022/12/04 08:00:47;;;;;;;56.63;30.33;;;8.00;48.90;;;;;;4993179;28;20258;-49
2022/12/04 08:03:12;;;;;;;62.40;33.90;;;8.00;49.00;;;;;;4992693;28;20198;-49
2022/12/04 08:05:38;;;;;;;59.87;31.30;;;8.00;49.00;;;;;;4992415;28;20171;-49
2022/12/04 08:08:04;;;;;;;63.20;34.20;;;8.00;49.00;;;;;;4993064;28;20171;-49
2022/12/04 08:10:29;;;;;;;59.10;33.87;;;8.10;49.00;;;;;;4992957;28;20191;-50
2022/12/04 08:12:55;;;;;;;67.10;35.30;;;8.10;48.90;;;;;;4992662;28;20761;-49
2022/12/04 08:15:21;;;;;;;66.90;33.30;;;8.10;49.00;;;;;;4992826;28;20242;-49
2022/12/04 08:17:47;;;;;;;66.53;35.83;;;8.10;49.00;;;;;;4992982;28;20178;-50
2022/12/04 08:20:12;;;;;;;55.90;33.87;;;8.10;49.00;;;;;;4992852;28;20541;-49
2022/12/04 08:22:38;;;;;;;63.17;33.37;;;8.10;49.10;;;;;;4992767;28;20672;-50
2022/12/04 08:25:04;;;;;;;63.47;33.40;;;8.10;49.20;;;;;;4992328;28;20832;-49
2022/12/04 08:27:30;;;;;;;69.32;33.85;;;8.20;49.10;;;;;;4992749;28;20167;-50
2022/12/04 08:29:56;;;;;;;56.73;31.80;;;8.20;49.10;;;;;;4992718;28;20190;-50
2022/12/04 08:42:53;;;;;;;53.72;32.88;;;8.20;49.20;;;;;;4992080;28;20185;-50
2022/12/04 08:45:18;;;;;;;64.77;35.57;;;8.20;49.30;;;;;;4992500;28;20198;-50
2022/12/04 08:47:44;;;;;;;53.30;31.97;;;8.20;49.20;;;;;;4992495;28;20262;-50
2022/12/04 08:50:10;;;;;;;60.43;32.27;;;8.30;49.40;;;;;;4992501;28;20218;-50
2022/12/04 08:52:36;;;;;;;67.20;32.90;;;8.30;49.30;;;;;;4992004;28;20211;-50
2022/12/04 08:55:02;;;;;;;64.33;32.33;;;8.30;49.20;;;;;;4991139;28;20581;-50
2022/12/04 08:57:27;;;;;;;50.22;32.10;;;8.40;49.10;;;;;;4992412;28;20398;-49
2022/12/04 08:59:53;;;;;;;59.50;31.77;;;8.40;49.10;;;;;;4992387;28;20278;-49
2022/12/04 09:02:19;;;;;;;58.27;33.73;;;8.40;49.10;;;;;;4992298;28;20724;-49
2022/12/04 09:04:45;;;;;;;62.17;36.17;;;8.40;49.10;;;;;;4992344;28;20238;-49
2022/12/04 09:07:10;;;;;;;69.40;36.50;;;8.40;49.10;;;;;;4992323;28;20638;-50
2022/12/04 09:09:36;;;;;;;55.63;33.27;;;8.40;49.10;;;;;;4992250;28;20182;-50
2022/12/04 09:12:02;;;;;;;61.10;34.33;;;8.40;49.10;;;;;;4992073;28;20194;-50
2022/12/04 09:14:27;;;;;;;58.40;31.77;;;8.50;49.30;;;;;;4992251;28;20190;-50
2022/12/04 09:16:53;;;;;;;65.60;31.83;;;8.50;49.30;;;;;;4993614;28;20171;-50
2022/12/04 09:19:19;;;;;;;59.90;31.50;;;8.50;49.30;;;;;;4996094;28;20233;-49
2022/12/04 09:21:45;;;;;;;60.08;33.10;;;8.50;49.20;;;;;;4996294;28;20203;-50
2022/12/04 09:24:11;;;;;;;65.93;36.63;;;8.50;49.30;;;;;;4995635;28;20711;-50
2022/12/04 09:26:37;;;;;;;72.83;34.70;;;8.50;49.30;;;;;;4996006;28;20406;-50
2022/12/04 09:29:04;;;;;;;75.80;34.50;;;8.50;49.40;;;;;;4995932;28;20761;-50
2022/12/04 09:31:31;;;;;;;61.20;32.40;;;8.50;49.40;;;;;;4995786;28;20226;-49
2022/12/04 09:33:58;;;;;;;62.35;32.30;;;8.60;49.40;;;;;;4995525;28;20171;-50
2022/12/04 09:36:24;;;;;;;62.20;33.72;;;8.60;49.40;;;;;;4995784;28;20704;-50
2022/12/04 09:38:52;;;;;;;54.10;33.22;;;8.60;49.40;;;;;;4995774;28;20742;-50
2022/12/04 09:41:49;;;;;;;65.53;33.90;;;8.60;49.40;;;;;;4995565;28;20170;-50
2022/12/04 09:44:19;;;;;;;64.78;34.72;;;8.60;49.40;;;;;;4995436;28;20227;-50
2022/12/04 09:46:57;;;;;;;63.38;33.80;;;8.60;49.50;;;;;;4995456;28;20606;-50
2022/12/04 09:49:38;;;;;;;59.15;32.67;;;8.60;49.50;;;;;;4995542;28;20163;-49
2022/12/04 09:52:37;;;;;;;59.08;30.67;;;8.70;49.60;;;;;;4995142;28;20202;-50
2022/12/04 09:55:10;;;;;;;58.30;31.05;;;8.70;49.50;;;;;;4985148;28;20214;-49
2022/12/04 09:57:44;;;;;;;52.55;32.22;;;8.70;49.60;;;;;;4995557;28;20255;-50
2022/12/04 10:00:14;;;;;;;51.28;29.25;;;8.80;49.60;;;;;;4995631;28;20168;-49
2022/12/04 10:02:44;;;;;;;58.45;32.45;;;8.80;49.60;;;;;;4994948;28;20282;-50
2022/12/04 10:05:48;;;;;;;52.58;31.10;;;8.90;49.70;;;;;;4995151;28;20698;-50
2022/12/04 10:08:22;;;;;;;60.80;30.17;;;9.00;49.50;;;;;;4977383;28;20183;-50
2022/12/04 10:11:14;;;;;;;64.25;31.33;;;9.00;49.50;;;;;;4995283;28;20189;-49
2022/12/04 10:14:06;;;;;;;52.85;30.73;;;9.00;49.50;;;;;;4994794;28;20168;-50
2022/12/04 10:16:44;;;;;;;54.33;29.48;;;9.10;49.70;;;;;;4993837;28;20288;-50
2022/12/04 10:19:35;;;;;;;49.42;30.75;;;9.10;49.70;;;;;;4995195;28;20306;-50
2022/12/04 10:22:21;;;;;;;56.92;31.88;;;9.10;49.60;;;;;;4994574;28;20548;-50
2022/12/04 10:24:50;;;;;;;60.67;29.77;;;9.10;49.60;;;;;;4994832;28;20691;-50
2022/12/04 10:27:48;;;;;;;50.70;30.85;;;9.20;49.70;;;;;;4994874;28;20174;-50
2022/12/04 10:30:20;;;;;;;54.00;30.02;;;9.20;49.60;;;;;;4992559;28;20186;-49
2022/12/04 10:32:47;;;;;;;57.83;33.00;;;9.20;49.70;;;;;;4994649;28;20198;-49
2022/12/04 10:35:24;;;;;;;58.65;30.38;;;9.10;49.70;;;;;;4994647;28;20178;-50
2022/12/04 10:37:57;;;;;;;60.42;30.25;;;9.20;49.70;;;;;;4994789;28;20254;-50
2022/12/04 10:40:39;;;;;;;58.85;32.20;;;9.20;49.70;;;;;;4994636;28;20584;-50
2022/12/04 10:43:33;;;;;;;48.47;28.90;;;9.20;49.70;;;;;;4994522;28;20199;-50
2022/12/04 10:45:59;;;;;;;56.58;29.10;;;9.20;49.70;;;;;;4994739;28;20544;-49
2022/12/04 10:48:33;;;;;;;47.63;31.80;;;9.20;49.70;;;;;;4994350;28;20177;-50
2022/12/04 10:50:59;;;;;;;55.83;31.73;;;9.30;49.70;;;;;;4994326;28;20616;-50
2022/12/04 10:53:36;;;;;;;57.53;30.73;;;9.30;49.70;;;;;;4993846;28;20240;-50
2022/12/04 10:56:22;;;;;;;52.40;30.23;;;9.30;49.70;;;;;;4994343;28;20447;-49
2022/12/04 10:59:00;;;;;;;50.08;29.25;;;9.30;49.70;;;;;;4994213;28;20171;-50
2022/12/04 11:01:32;;;;;;;55.63;30.73;;;9.30;49.60;;;;;;4994285;28;20226;-50
2022/12/04 11:04:17;;;;;;;52.30;29.80;;;9.30;49.70;;;;;;4993935;28;20241;-49
2022/12/04 11:06:44;;;;;;;49.33;29.35;;;9.40;49.70;;;;;;4994414;28;20503;-50
2022/12/04 11:09:23;;;;;;;50.00;29.42;;;9.40;49.70;;;;;;4994465;28;20182;-50
2022/12/04 11:11:49;;;;;;;67.25;41.72;;;9.40;49.70;;;;;;4993779;28;20217;-50
2022/12/04 11:14:18;;;;;;;61.22;39.80;;;9.50;49.90;;;;;;4993547;28;20174;-50
2022/12/04 11:16:48;;;;;;;57.17;32.08;;;9.50;49.90;;;;;;4994130;28;20182;-50
2022/12/04 11:19:28;;;;;;;47.78;30.92;;;9.60;49.80;;;;;;4993772;28;20888;-50
2022/12/04 11:21:59;;;;;;;56.05;30.58;;;9.60;49.90;;;;;;4993615;28;20206;-50
2022/12/04 11:24:30;;;;;;;50.88;31.98;;;9.60;49.80;;;;;;4993547;28;20694;-51
2022/12/04 11:26:57;;;;;;;51.05;29.50;;;9.70;49.80;;;;;;4993853;28;20178;-50
2022/12/04 11:29:31;;;;;;;49.47;30.52;;;9.70;49.80;;;;;;4993518;28;20694;-50
2022/12/04 11:31:57;;;;;;;56.38;32.00;;;9.80;49.80;;;;;;4993342;28;20200;-49
2022/12/04 11:34:32;;;;;;;47.20;29.65;;;9.80;49.70;;;;;;4993548;28;20183;-50
2022/12/04 11:36:58;;;;;;;49.53;34.47;;;9.90;49.80;;;;;;4993795;28;20159;-50
2022/12/04 11:39:40;;;;;;;48.43;31.37;;;9.90;50.40;;;;;;4993250;28;20202;-50
2022/12/04 11:42:18;;;;;;;47.50;30.20;;;9.90;49.60;;;;;;4991479;28;20510;-50
2022/12/04 11:44:56;;;;;;;44.08;28.83;;;9.90;49.70;;;;;;4993427;28;20209;-50
2022/12/04 11:47:25;;;;;;;47.35;31.50;;;9.90;49.80;;;;;;4993528;28;20525;-49
2022/12/04 11:50:02;;;;;;;49.45;30.60;;;9.90;49.80;;;;;;4993314;28;20175;-50
2022/12/04 11:52:45;;;;;;;48.33;27.27;;;10.00;49.80;;;;;;4992960;28;20676;-50
2022/12/04 11:55:17;;;;;;;49.33;28.45;;;10.00;49.70;;;;;;4993329;28;20182;-50
2022/12/04 11:58:03;;;;;;;47.33;27.88;;;10.00;49.70;;;;;;4993356;28;20569;-50
2022/12/04 12:00:31;;;;;;;50.58;30.85;;;10.00;49.60;;;;;;4993201;28;20630;-50
2022/12/04 12:03:15;;;;;;;50.03;32.63;;;10.00;49.50;;;;;;4993079;28;20202;-50
2022/12/04 12:06:08;;;;;;;53.15;31.35;;;10.00;49.50;;;;;;4993034;28;20190;-50
2022/12/04 12:09:00;;;;;;;49.25;29.25;;;10.00;49.50;;;;;;4992807;28;20253;-50
2022/12/04 12:11:37;;;;;;;56.90;31.85;;;10.00;49.50;;;;;;4992990;28;20345;-50
2022/12/04 12:14:13;;;;;;;55.95;31.67;;;10.00;49.60;;;;;;4992785;28;20182;-50
2022/12/04 12:17:10;;;;;;;57.03;30.27;;;10.00;49.50;;;;;;4992816;28;20154;-50
2022/12/04 12:19:55;;;;;;;50.65;32.13;;;10.00;49.40;;;;;;4992856;28;20260;-50
2022/12/04 12:22:44;;;;;;;53.40;30.10;;;10.00;49.40;;;;;;4992404;28;20197;-49
2022/12/04 12:25:26;;;;;;;52.80;30.13;;;9.90;49.50;;;;;;4992967;28;20310;-50
2022/12/04 12:28:11;;;;;;;48.92;30.25;;;9.90;49.60;;;;;;4992657;28;20217;-50
2022/12/04 12:30:57;;;;;;;51.97;33.25;;;9.80;49.60;;;;;;4992531;28;20506;-50
2022/12/04 12:33:33;;;;;;;54.72;31.05;;;9.90;49.80;;;;;;4992336;28;20205;-50
2022/12/04 12:36:11;;;;;;;63.65;35.38;;;9.90;49.70;;;;;;4992698;28;20260;-50
2022/12/04 12:38:50;;;;;;;50.83;30.85;;;9.90;49.70;;;;;;4992547;28;20246;-50
2022/12/04 12:41:20;;;;;;;55.85;31.73;;;9.90;49.70;;;;;;4992495;28;20163;-50
2022/12/04 12:43:58;;;;;;;50.55;30.15;;;9.90;49.70;;;;;;4992293;28;20190;-49
2022/12/04 12:46:31;;;;;;;49.65;31.63;;;9.90;49.70;;;;;;4992507;28;20186;-50
2022/12/04 12:49:05;;;;;;;59.08;33.97;;;9.90;49.60;;;;;;4992578;28;20181;-50
2022/12/04 12:51:38;;;;;;;54.63;32.55;;;9.90;49.60;;;;;;4993001;28;21077;-50
2022/12/04 12:54:14;;;;;;;54.60;31.25;;;10.00;49.60;;;;;;4996415;28;20189;-50
2022/12/04 12:56:45;;;;;;;48.75;31.00;;;10.00;49.50;;;;;;4996574;28;20170;-50
2022/12/04 12:59:18;;;;;;;46.15;29.67;;;8.90;49.00;;;;;;4996581;28;20196;-50
2022/12/04 13:02:04;;;;;;;45.78;28.02;;;10.00;49.50;;;;;;4996344;28;20206;-50
2022/12/04 13:04:45;;;;;;;52.03;30.60;;;10.00;49.50;;;;;;4995864;28;20751;-50
2022/12/04 13:07:47;;;;;;;58.30;31.60;;;10.00;49.70;;;;;;4996296;28;20237;-50
2022/12/04 13:10:39;;;;;;;53.03;31.27;;;10.00;49.70;;;;;;4995043;28;20194;-50
2022/12/04 13:13:07;;;;;;;60.25;32.20;;;10.00;49.60;;;;;;4996233;28;20240;-50
2022/12/04 13:15:50;;;;;;;50.55;29.20;;;10.00;49.60;;;;;;4996264;28;20174;-49
2022/12/04 13:18:32;;;;;;;51.00;29.00;;;10.10;49.70;;;;;;4996125;28;20296;-50
2022/12/04 13:21:02;;;;;;;51.60;30.08;;;10.10;49.70;;;;;;4996111;28;20160;-50
2022/12/04 13:23:44;;;;;;;54.28;31.20;;;10.10;49.60;;;;;;4995835;28;20210;-50